Fram — LADA7 — position and weather

sailwx.info

Track history (hours):
 
Tides and Currents Weather Stations Pressure Air Temp Water Temp Dewpoint Dewpoint Depression Visibility Wind Speed Wind Dir Waves Ship Positions

Fram

Last reported at 2018-Nov-06 23:30 UTC. Time now 2018-Nov-14 02:19 UTC.
Position N 09°19' W 079°55'.

Length 114 m; draft 5.1 m.

Type: Ship. MMSI: 258932000.

Date/timePositionNaut miles runAvg speedWind from/ knotsBaromVisibWave heightAir tempDewpointWater temp
2018-Nov-06 23:30N 09°19' W 079°55'4 8.3
2018-Nov-06 23:03N 09°22' W 079°55'0 2.9
2018-Nov-06 23:00N 09°22' W 079°56'1 0.6
2018-Nov-06 21:54N 09°22' W 079°56'0 0.0
2018-Nov-06 21:24N 09°22' W 079°56'0 0.0
2018-Nov-06 20:54N 09°22' W 079°56'0 0.0
2018-Nov-06 20:30N 09°22' W 079°56'0 0.0
2018-Nov-06 19:48N 09°22' W 079°56'0 0.0
2018-Nov-06 19:24N 09°22' W 079°56'0 0.0
2018-Nov-06 19:00N 09°22' W 079°56'0 0.0
2018-Nov-06 18:30N 09°22' W 079°56'0 0.0
2018-Nov-06 18:00N 09°22' W 079°56'0 0.1
2018-Nov-06 17:30N 09°22' W 079°56'0 0.0
2018-Nov-06 16:54N 09°22' W 079°56'0 0.0
2018-Nov-06 16:30N 09°22' W 079°56'0 0.0
2018-Nov-06 16:00N 09°22' W 079°56'0 0.1
2018-Nov-06 15:30N 09°22' W 079°56'0 0.0
2018-Nov-06 15:03N 09°22' W 079°56'0 0.1
2018-Nov-06 15:00N 09°22' W 079°56'0 0.1
2018-Nov-06 14:27N 09°22' W 079°56'0 0.0
2018-Nov-06 14:03N 09°22' W 079°56'0 0.0
2018-Nov-06 14:00N 09°22' W 079°56'0 0.0
2018-Nov-06 13:30N 09°22' W 079°56'0 0.0
2018-Nov-06 13:03N 09°22' W 079°56'0 0.1
2018-Nov-06 13:00N 09°22' W 079°56'1 2.5
2018-Nov-06 12:30N 09°23' W 079°55'4 8.6
2018-Nov-06 12:03N 09°27' W 079°57'111.3
2018-Nov-06 12:00N 09°27' W 079°57'710.4
2018-Nov-06 11:17N 09°30' W 080°04'  
2018-Nov-03 20:29N 09°35' W 079°59'512.7
2018-Nov-03 20:03N 09°31' W 079°56'113.6
2018-Nov-03 20:00N 09°31' W 079°55'713.1
2018-Nov-03 19:30N 09°24' W 079°55'2 4.8
2018-Nov-03 19:03N 09°22' W 079°56'0 0.0
2018-Nov-03 15:37N 09°22' W 079°56'0 0.0
2018-Nov-03 15:25N 09°22' W 079°56'0 0.0
2018-Nov-03 15:01N 09°22' W 079°56'0 0.0
2018-Nov-03 14:55N 09°22' W 079°56'0 0.0
2018-Nov-03 14:25N 09°22' W 079°56'0 0.0
2018-Nov-03 14:01N 09°22' W 079°56'0 0.0
2018-Nov-03 13:55N 09°22' W 079°56'0 0.0
2018-Nov-03 13:28N 09°22' W 079°56'0 0.0
2018-Nov-03 13:01N 09°22' W 079°56'0 0.1
2018-Nov-03 12:58N 09°22' W 079°56'0 0.0
2018-Nov-03 12:30N 09°22' W 079°56'1 2.2
2018-Nov-03 12:03N 09°23' W 079°55'0 5.8
2018-Nov-03 12:00N 09°23' W 079°55'510.0
2018-Nov-03 11:30N 09°28' W 079°55'5 9.1
2018-Nov-03 11:00N 09°32' W 079°53'3 6.4
2018-Nov-03 10:28N 09°36' W 079°52'7 6.4
2018-Nov-03 09:19N 09°42' W 079°49'  
Track history (hours):
 
Tides and Currents Weather Stations Pressure Air Temp Water Temp Dewpoint Dewpoint Depression Visibility Wind Speed Wind Dir Waves Ship Positions

Fram

Last reported at 2018-Nov-06 23:30 UTC. Time now 2018-Nov-14 02:19 UTC.
Position N 09°19' W 079°55'.

Length 114 m; draft 5.1 m.

Type: Ship. MMSI: 258932000.

Date/timePositionNaut miles runAvg speedWind from/ knotsBaromVisibWave heightAir tempDewpointWater temp
2018-Nov-06 23:30N 09°19' W 079°55'4 8.3
2018-Nov-06 23:03N 09°22' W 079°55'0 2.9
2018-Nov-06 23:00N 09°22' W 079°56'1 0.6
2018-Nov-06 21:54N 09°22' W 079°56'0 0.0
2018-Nov-06 21:24N 09°22' W 079°56'0 0.0
2018-Nov-06 20:54N 09°22' W 079°56'0 0.0
2018-Nov-06 20:30N 09°22' W 079°56'0 0.0
2018-Nov-06 19:48N 09°22' W 079°56'0 0.0
2018-Nov-06 19:24N 09°22' W 079°56'0 0.0
2018-Nov-06 19:00N 09°22' W 079°56'0 0.0
2018-Nov-06 18:30N 09°22' W 079°56'0 0.0
2018-Nov-06 18:00N 09°22' W 079°56'0 0.1
2018-Nov-06 17:30N 09°22' W 079°56'0 0.0
2018-Nov-06 16:54N 09°22' W 079°56'0 0.0
2018-Nov-06 16:30N 09°22' W 079°56'0 0.0
2018-Nov-06 16:00N 09°22' W 079°56'0 0.1
2018-Nov-06 15:30N 09°22' W 079°56'0 0.0
2018-Nov-06 15:03N 09°22' W 079°56'0 0.1
2018-Nov-06 15:00N 09°22' W 079°56'0 0.1
2018-Nov-06 14:27N 09°22' W 079°56'0 0.0
2018-Nov-06 14:03N 09°22' W 079°56'0 0.0
2018-Nov-06 14:00N 09°22' W 079°56'0 0.0
2018-Nov-06 13:30N 09°22' W 079°56'0 0.0
2018-Nov-06 13:03N 09°22' W 079°56'0 0.1
2018-Nov-06 13:00N 09°22' W 079°56'1 2.5
2018-Nov-06 12:30N 09°23' W 079°55'4 8.6
2018-Nov-06 12:03N 09°27' W 079°57'111.3
2018-Nov-06 12:00N 09°27' W 079°57'710.4
2018-Nov-06 11:17N 09°30' W 080°04'  
2018-Nov-03 20:29N 09°35' W 079°59'512.7
2018-Nov-03 20:03N 09°31' W 079°56'113.6
2018-Nov-03 20:00N 09°31' W 079°55'713.1
2018-Nov-03 19:30N 09°24' W 079°55'2 4.8
2018-Nov-03 19:03N 09°22' W 079°56'0 0.0
2018-Nov-03 15:37N 09°22' W 079°56'0 0.0
2018-Nov-03 15:25N 09°22' W 079°56'0 0.0
2018-Nov-03 15:01N 09°22' W 079°56'0 0.0
2018-Nov-03 14:55N 09°22' W 079°56'0 0.0
2018-Nov-03 14:25N 09°22' W 079°56'0 0.0
2018-Nov-03 14:01N 09°22' W 079°56'0 0.0
2018-Nov-03 13:55N 09°22' W 079°56'0 0.0
2018-Nov-03 13:28N 09°22' W 079°56'0 0.0
2018-Nov-03 13:01N 09°22' W 079°56'0 0.1
2018-Nov-03 12:58N 09°22' W 079°56'0 0.0
2018-Nov-03 12:30N 09°22' W 079°56'1 2.2
2018-Nov-03 12:03N 09°23' W 079°55'0 5.8
2018-Nov-03 12:00N 09°23' W 079°55'510.0
2018-Nov-03 11:30N 09°28' W 079°55'5 9.1
2018-Nov-03 11:00N 09°32' W 079°53'3 6.4
2018-Nov-03 10:28N 09°36' W 079°52'7 6.4
2018-Nov-03 09:19N 09°42' W 079°49'  

Dump ship's entire track history